Time;durP1;ratioP1;P1;durP2;ratioP2;P2;SDS_P1;SDS_P2;PMS_P1;PMS_P2;Temp;Humidity;BMP_temperature;BMP_pressure;BME280_temperature;BME280_humidity;BME280_pressure;Samples;Min_cycle;Max_cycle;Signal;HPM_P1;HPM_P2
2022/10/19 00:10:01;;;;;;;5.40;4.17;;;;;;;-143.84;88.01;45159.50;5115979;27;20489;-75
2022/10/19 00:12:30;;;;;;;10.70;4.07;;;;;;;-143.84;87.84;45148.09;5093153;28;20499;-76
2022/10/19 00:14:57;;;;;;;6.47;3.23;;;;;;;-143.84;87.82;45153.81;5092450;28;20508;-75
2022/10/19 00:17:24;;;;;;;3.87;3.47;;;;;;;-143.84;87.55;45151.91;5084249;28;20444;-75
2022/10/19 00:19:52;;;;;;;14.57;3.13;;;;;;;-143.84;87.67;45159.50;5054135;28;20474;-76
2022/10/19 00:22:19;;;;;;;3.57;3.13;;;;;;;-143.84;87.59;45193.78;5072337;28;20444;-76
2022/10/19 00:24:46;;;;;;;3.50;3.13;;;;;;;-143.84;88.03;45138.56;5072121;28;20436;-75
2022/10/19 00:27:13;;;;;;;5.80;3.17;;;;;;;-143.84;87.76;45170.94;5072148;28;20444;-75
2022/10/19 00:29:42;;;;;;;7.33;3.63;;;;;;;-143.84;87.82;45148.09;5072400;28;20494;-75
2022/10/19 00:32:09;;;;;;;5.70;3.70;;;;;;;-143.84;88.08;45157.59;5071694;28;21054;-76
2022/10/19 00:34:36;;;;;;;8.93;3.87;;;;;;;-143.84;87.90;45144.28;5071628;28;20440;-75
2022/10/19 00:37:03;;;;;;;12.10;3.43;;;;;;;-143.84;88.18;45132.84;5071643;28;20520;-75
2022/10/19 00:39:30;;;;;;;3.90;3.20;;;;;;;-143.84;88.14;45167.13;5071737;28;20501;-76
2022/10/19 00:41:57;;;;;;;5.37;4.10;;;;;;;-143.84;87.90;45176.66;5071710;28;20444;-76
2022/10/19 00:44:59;;;;;;;9.97;5.90;;;;;;;-143.84;87.83;45161.41;5071851;28;20446;-76
2022/10/19 00:47:26;;;;;;;9.23;5.10;;;;;;;-143.84;87.95;45155.69;5071775;28;21253;-76
2022/10/19 00:49:55;;;;;;;5.43;4.20;;;;;;;-143.84;87.80;45169.03;5071490;28;21008;-76
2022/10/19 00:52:24;;;;;;;4.87;4.33;;;;;;;-143.84;88.10;45157.59;5071555;28;20479;-76
2022/10/19 00:54:53;;;;;;;6.70;3.70;;;;;;;-143.84;88.61;45148.09;5080439;28;20450;-76
2022/10/19 00:57:21;;;;;;;8.50;4.37;;;;;;;-143.84;88.84;45153.81;5070683;28;20497;-76
2022/10/19 00:59:49;;;;;;;9.37;4.20;;;;;;;-143.84;89.16;45197.59;5070942;28;20524;-75
2022/10/19 01:02:18;;;;;;;4.27;3.83;;;;;;;-143.84;88.93;45178.56;5070374;28;20447;-76
2022/10/19 01:04:50;;;;;;;3.63;3.10;;;;;;;-143.84;88.84;45167.13;5084150;28;20447;-76
2022/10/19 01:07:18;;;;;;;8.37;3.47;;;;;;;-143.84;88.90;45170.94;5081935;28;20454;-75
2022/10/19 01:09:45;;;;;;;4.90;2.90;;;;;;;-143.84;89.20;45155.69;5071199;28;20879;-76
2022/10/19 01:12:23;;;;;;;3.73;3.37;;;;;;;-143.84;89.04;45153.81;5051003;28;20503;-75
2022/10/19 01:15:04;;;;;;;3.77;3.47;;;;;;;-143.84;89.24;45174.75;5051322;28;20436;-75
2022/10/19 01:17:41;;;;;;;3.70;3.40;;;;;;;-143.84;89.17;45127.13;5051316;28;20865;-75
2022/10/19 01:20:40;;;;;;;3.47;3.17;;;;;;;-143.84;89.55;45130.94;5050988;28;21199;-76
2022/10/19 01:23:34;;;;;;;5.20;3.83;;;;;;;-143.84;89.87;45155.69;5050799;28;20520;-75
2022/10/19 01:26:14;;;;;;;8.00;3.87;;;;;;;-143.84;90.09;45148.09;5051322;28;20443;-75
2022/10/19 01:28:51;;;;;;;5.63;3.43;;;;;;;-143.84;90.35;45157.59;5050991;28;20945;-75
2022/10/19 01:31:28;;;;;;;3.87;3.50;;;;;;;-143.84;90.49;45169.03;5050783;28;21036;-75
2022/10/19 01:34:03;;;;;;;7.43;3.77;;;;;;;-143.84;90.36;45136.66;5050681;28;20506;-75
2022/10/19 01:36:39;;;;;;;7.97;3.80;;;;;;;-143.84;90.07;45169.03;5050733;28;20459;-75
2022/10/19 01:39:11;;;;;;;11.73;3.97;;;;;;;-143.84;90.00;45155.69;5050789;28;20433;-75
2022/10/19 01:41:46;;;;;;;4.13;3.73;;;;;;;-143.84;90.04;45159.50;5050685;28;20448;-75
2022/10/19 01:44:19;;;;;;;4.60;3.67;;;;;;;-143.84;90.04;45151.91;5050853;28;21307;-75
2022/10/19 01:46:54;;;;;;;12.63;4.00;;;;;;;-143.84;90.25;45174.75;5050427;28;20447;-76
2022/10/19 01:49:28;;;;;;;8.90;4.00;;;;;;;-143.84;90.17;45163.31;5050396;28;20444;-75
2022/10/19 01:52:00;;;;;;;5.57;4.30;;;;;;;-143.84;90.01;45170.94;5051015;28;20565;-75
2022/10/19 01:54:30;;;;;;;4.33;3.53;;;;;;;-143.84;90.18;45144.28;5050349;28;20484;-75
2022/10/19 01:57:00;;;;;;;12.97;3.47;;;;;;;-143.84;90.04;45167.13;5048988;28;20515;-75
2022/10/19 01:59:28;;;;;;;5.57;4.10;;;;;;;-143.84;90.27;45157.59;5050494;28;20867;-75
2022/10/19 02:01:58;;;;;;;4.00;3.70;;;;;;;-143.84;90.21;45153.81;5050387;28;20444;-75
2022/10/19 02:04:26;;;;;;;5.00;3.30;;;;;;;-143.84;90.77;45134.75;5050038;28;20506;-75
2022/10/19 02:06:55;;;;;;;6.20;3.47;;;;;;;-143.84;90.67;45170.94;5050202;28;20855;-75
2022/10/19 02:09:22;;;;;;;4.13;3.73;;;;;;;-143.84;91.23;45201.41;5049871;28;20453;-75
2022/10/19 02:11:52;;;;;;;4.13;3.83;;;;;;;-143.84;91.00;45153.81;5066182;28;20557;-75
2022/10/19 02:14:24;;;;;;;4.00;3.60;;;;;;;-143.84;91.10;45186.16;5070002;28;20521;-75
2022/10/19 02:16:55;;;;;;;5.70;4.60;;;;;;;-143.84;91.75;45172.84;5070485;28;20439;-73
2022/10/19 02:19:23;;;;;;;6.47;5.10;;;;;;;-143.84;92.23;45146.19;5070598;28;20435;-73
2022/10/19 02:21:52;;;;;;;6.93;5.20;;;;;;;-143.84;92.16;45153.81;5070485;28;21216;-73
2022/10/19 02:24:19;;;;;;;11.23;5.13;;;;;;;-143.84;92.84;45155.69;5070492;28;20943;-73
2022/10/19 02:26:46;;;;;;;7.27;5.00;;;;;;;-143.84;92.77;45161.41;5070716;28;20503;-73
2022/10/19 02:29:15;;;;;;;7.90;4.70;;;;;;;-143.84;92.64;45169.03;5070520;28;20866;-73
2022/10/19 02:31:44;;;;;;;8.37;4.07;;;;;;;-143.84;92.74;45157.59;5069565;28;20476;-73
2022/10/19 02:34:11;;;;;;;8.33;4.20;;;;;;;-143.84;92.81;45153.81;5070201;28;20542;-73
2022/10/19 02:36:40;;;;;;;10.33;4.30;;;;;;;-143.84;92.72;45163.31;5070400;28;20435;-73
2022/10/19 02:39:08;;;;;;;7.17;4.63;;;;;;;-143.84;92.40;45127.13;5070279;28;20569;-73
2022/10/19 02:41:42;;;;;;;4.13;3.73;;;;;;;-143.84;91.72;45161.41;5070381;28;20472;-73
2022/10/19 02:44:18;;;;;;;8.03;3.60;;;;;;;-143.84;91.64;45178.56;5069878;28;20906;-73
2022/10/19 02:46:50;;;;;;;4.17;3.87;;;;;;;-143.84;91.27;45159.50;5069949;28;20786;-73
2022/10/19 02:49:18;;;;;;;9.23;3.93;;;;;;;-143.84;91.00;45165.22;5069933;28;20451;-73
2022/10/19 02:51:59;;;;;;;4.67;3.53;;;;;;;-143.84;90.78;45142.38;5069868;28;20480;-73
2022/10/19 02:54:26;;;;;;;6.40;3.87;;;;;;;-143.84;90.57;45184.25;5075636;28;20446;-73
2022/10/19 02:56:54;;;;;;;7.13;4.10;;;;;;;-143.84;90.12;45150.00;5090033;28;20951;-73
2022/10/19 02:59:21;;;;;;;5.10;3.97;;;;;;;-143.84;89.94;45155.69;5089997;28;20445;-73
2022/10/19 03:01:48;;;;;;;7.57;4.23;;;;;;;-143.84;90.09;45163.31;5089894;28;20470;-73
2022/10/19 03:04:16;;;;;;;8.30;4.00;;;;;;;-143.84;90.09;45136.66;5090051;28;20501;-73
2022/10/19 03:06:43;;;;;;;4.37;3.83;;;;;;;-143.84;90.44;45167.13;5090036;28;20926;-73
2022/10/19 03:09:12;;;;;;;7.93;3.30;;;;;;;-143.84;90.28;45150.00;5070164;28;20458;-73
2022/10/19 03:11:39;;;;;;;6.70;3.20;;;;;;;-143.84;90.32;45151.91;5069346;28;20476;-73
2022/10/19 03:14:06;;;;;;;4.23;3.83;;;;;;;-143.84;90.72;45178.56;5069989;28;20437;-73
2022/10/19 03:16:33;;;;;;;6.30;3.93;;;;;;;-143.84;90.65;45176.66;5069469;28;20440;-73
2022/10/19 03:19:01;;;;;;;3.63;3.40;;;;;;;-143.84;90.63;45197.59;5069882;28;20936;-73
2022/10/19 03:21:28;;;;;;;7.17;4.03;;;;;;;-143.84;90.64;45153.81;5069881;28;20492;-73
2022/10/19 03:23:55;;;;;;;6.37;3.70;;;;;;;-143.84;91.26;45189.97;5069604;28;20449;-73
2022/10/19 03:26:23;;;;;;;5.47;3.60;;;;;;;-143.84;91.38;45155.69;5069656;28;20521;-73
2022/10/19 03:28:51;;;;;;;11.63;3.57;;;;;;;-143.84;91.24;45140.47;5069308;28;20449;-73
2022/10/19 03:31:19;;;;;;;6.27;2.83;;;;;;;-143.84;91.24;45159.50;5069411;28;20441;-73
2022/10/19 03:33:46;;;;;;;3.13;2.83;;;;;;;-143.84;91.14;45142.38;5069454;28;20444;-72
2022/10/19 03:36:19;;;;;;;6.53;3.70;;;;;;;-143.84;90.71;45178.56;5086755;28;20455;-72
2022/10/19 03:38:47;;;;;;;4.93;3.43;;;;;;;-143.84;90.40;45165.22;5089684;28;20435;-73
2022/10/19 03:41:14;;;;;;;4.73;3.57;;;;;;;-143.84;89.88;45165.22;5089698;28;20440;-73
2022/10/19 03:43:43;;;;;;;4.73;3.40;;;;;;;-143.84;89.49;45170.94;5091614;28;20454;-73
2022/10/19 03:46:10;;;;;;;4.40;3.43;;;;;;;-143.84;89.21;45167.13;5093757;28;20451;-73
2022/10/19 03:48:37;;;;;;;3.30;2.97;;;;;;;-143.84;88.47;45155.69;5093728;28;20447;-74
2022/10/19 03:51:08;;;;;;;3.40;3.20;;;;;;;-143.84;88.48;45153.81;5093586;28;20979;-72
2022/10/19 03:53:36;;;;;;;4.90;3.77;;;;;;;-143.84;88.02;45151.91;5092219;28;20481;-71
2022/10/19 03:56:05;;;;;;;3.50;3.20;;;;;;;-143.84;87.66;45178.56;5082319;28;20510;-74
2022/10/19 03:58:35;;;;;;;8.27;4.43;;;;;;;-143.84;87.28;45174.75;5072601;28;20438;-74
2022/10/19 04:01:08;;;;;;;4.33;3.87;;;;;;;-143.84;87.29;45188.06;5073037;28;20440;-74
2022/10/19 04:03:35;;;;;;;3.93;3.60;;;;;;;-143.84;87.42;45140.47;5073492;28;20856;-72
2022/10/19 04:06:04;;;;;;;6.27;3.60;;;;;;;-143.84;87.07;45150.00;5073159;28;20435;-73
2022/10/19 04:08:31;;;;;;;11.77;5.30;;;;;;;-143.84;86.51;45170.94;5073217;28;20965;-73
2022/10/19 04:11:02;;;;;;;11.87;5.60;;;;;;;-143.84;86.56;45159.50;5072439;28;20471;-74
2022/10/19 04:13:30;;;;;;;17.30;7.53;;;;;;;-143.84;86.54;45163.31;5073090;28;20893;-74
2022/10/19 04:15:57;;;;;;;10.77;5.40;;;;;;;-143.84;86.33;45174.75;5072815;28;20431;-74
2022/10/19 04:18:26;;;;;;;11.33;3.93;;;;;;;-143.84;86.50;45155.69;5072440;28;20503;-73
2022/10/19 04:20:57;;;;;;;8.00;4.90;;;;;;;-143.84;86.54;45169.03;5072909;28;20646;-75
2022/10/19 04:23:24;;;;;;;14.93;4.37;;;;;;;-143.84;86.28;45167.13;5072961;28;20489;-75
2022/10/19 04:25:51;;;;;;;6.40;3.90;;;;;;;-143.84;86.24;45165.22;5072201;28;20444;-72
2022/10/19 04:28:18;;;;;;;11.13;3.53;;;;;;;-143.84;86.06;45178.56;5071794;28;20502;-71
2022/10/19 04:30:46;;;;;;;5.63;3.07;;;;;;;-143.84;85.78;45188.06;5080364;28;20508;-74
2022/10/19 04:33:13;;;;;;;4.20;3.10;;;;;;;-143.84;85.90;45159.50;5092678;28;20535;-73
2022/10/19 04:35:42;;;;;;;5.33;3.23;;;;;;;-143.84;85.80;45167.13;5092611;28;20442;-74
2022/10/19 04:38:09;;;;;;;6.73;3.40;;;;;;;-143.84;85.54;45140.47;5092425;28;20499;-70
2022/10/19 04:40:36;;;;;;;10.27;2.87;;;;;;;-143.84;85.62;45188.06;5092102;28;20815;-71
2022/10/19 04:43:04;;;;;;;6.07;3.27;;;;;;;-143.84;85.14;45169.03;5091905;28;20446;-71
2022/10/19 04:45:32;;;;;;;3.57;3.27;;;;;;;-143.84;85.03;45167.13;5092378;28;20446;-71
2022/10/19 04:47:59;;;;;;;9.57;3.33;;;;;;;-143.84;85.01;45159.50;5092215;28;20448;-71
2022/10/19 04:50:26;;;;;;;5.20;2.60;;;;;;;-143.84;84.98;45174.75;5092012;28;20431;-71
2022/10/19 04:52:55;;;;;;;18.73;3.23;;;;;;;-143.84;84.98;45159.50;5092025;28;20479;-71
2022/10/19 04:55:22;;;;;;;5.60;2.57;;;;;;;-143.84;84.89;45148.09;5091601;28;20886;-71
2022/10/19 04:57:50;;;;;;;3.70;3.40;;;;;;;-143.84;84.71;45184.25;5091719;28;20433;-71
2022/10/19 05:00:17;;;;;;;6.67;3.70;;;;;;;-143.84;84.56;45195.69;5091749;28;20466;-71
2022/10/19 05:02:45;;;;;;;7.07;2.97;;;;;;;-143.84;84.30;45163.31;5091607;28;20493;-71
2022/10/19 05:05:12;;;;;;;6.00;2.70;;;;;;;-143.84;84.30;45155.69;5087460;28;20468;-71
2022/10/19 05:07:40;;;;;;;4.67;3.40;;;;;;;-143.84;83.88;45144.28;5071481;28;20929;-71
2022/10/19 05:10:10;;;;;;;8.83;2.63;;;;;;;-143.84;84.03;45144.28;5071238;28;20501;-71
2022/10/19 05:12:37;;;;;;;17.73;3.63;;;;;;;-143.84;83.71;45148.09;5071426;28;20545;-71
2022/10/19 05:15:05;;;;;;;9.87;2.90;;;;;;;-143.84;83.74;45163.31;5071535;28;20446;-71
2022/10/19 05:17:32;;;;;;;3.50;2.93;;;;;;;-143.84;83.62;45157.59;5071164;28;20443;-71
2022/10/19 05:19:59;;;;;;;6.37;2.73;;;;;;;-143.84;83.46;45161.41;5071035;28;20509;-71
2022/10/19 05:22:27;;;;;;;6.40;3.27;;;;;;;-143.84;83.53;45153.81;5071258;28;20528;-71
2022/10/19 05:24:54;;;;;;;6.97;3.20;;;;;;;-143.84;82.98;45159.50;5070819;28;20447;-71
2022/10/19 05:27:22;;;;;;;4.93;3.13;;;;;;;-143.84;82.87;45150.00;5071038;28;20443;-72
2022/10/19 05:29:49;;;;;;;5.10;3.10;;;;;;;-143.84;82.65;45146.19;5071009;28;20498;-72
2022/10/19 05:32:17;;;;;;;5.77;3.40;;;;;;;-143.84;82.14;45144.28;5070960;28;21074;-71
2022/10/19 05:34:44;;;;;;;3.23;2.70;;;;;;;-143.84;82.04;45142.38;5070977;28;20447;-71
2022/10/19 05:37:11;;;;;;;3.97;2.90;;;;;;;-143.84;81.39;45148.09;5070919;28;20934;-71
2022/10/19 05:39:38;;;;;;;5.53;2.80;;;;;;;-143.84;81.35;45144.28;5070257;28;20497;-72
2022/10/19 05:42:05;;;;;;;6.30;4.50;;;;;;;-143.84;80.02;45148.09;5052538;28;20460;-71
2022/10/19 05:44:34;;;;;;;4.23;3.93;;;;;;;-143.84;79.45;45167.13;5075115;28;20698;-71
2022/10/19 05:47:02;;;;;;;5.97;4.40;;;;;;;-143.84;78.26;45142.38;5089766;28;20505;-71
2022/10/19 05:49:29;;;;;;;10.00;3.70;;;;;;;-143.84;77.03;45138.56;5089725;28;20510;-70
2022/10/19 05:51:56;;;;;;;24.97;3.63;;;;;;;-143.84;76.04;45106.19;5090670;28;20446;-72
2022/10/19 05:54:23;;;;;;;9.47;2.87;;;;;;;-143.84;74.59;45132.84;5090801;28;20487;-72
2022/10/19 05:56:50;;;;;;;3.90;2.23;;;;;;;-143.84;73.60;45138.56;5091157;28;20877;-72
2022/10/19 05:59:19;;;;;;;6.63;2.30;;;;;;;-143.84;73.02;45150.00;5090868;28;20428;-72
2022/10/19 06:01:48;;;;;;;5.63;3.23;;;;;;;-143.84;72.00;45130.94;5090879;28;20440;-75
2022/10/19 06:04:15;;;;;;;9.70;3.60;;;;;;;-143.84;70.48;45125.22;5089990;28;20450;-75
2022/10/19 06:06:43;;;;;;;6.60;3.13;;;;;;;-143.84;69.92;45115.72;5069560;28;20530;-75
2022/10/19 06:09:10;;;;;;;8.67;3.40;;;;;;;-143.84;68.85;45130.94;5070208;28;20450;-75
2022/10/19 06:11:40;;;;;;;8.10;3.37;;;;;;;-143.84;68.72;45108.09;5070392;28;20577;-75
2022/10/19 06:14:11;;;;;;;11.77;3.20;;;;;;;-143.84;67.28;45129.03;5070332;28;20475;-75
2022/10/19 06:16:38;;;;;;;3.13;2.60;;;;;;;-143.84;66.33;45117.63;5070141;28;20440;-75
2022/10/19 06:19:07;;;;;;;3.90;2.97;;;;;;;-143.84;65.73;45092.88;5070308;28;20801;-75
2022/10/19 06:21:35;;;;;;;5.87;3.03;;;;;;;-143.84;65.40;45127.13;5070034;28;20452;-75
2022/10/19 06:24:04;;;;;;;5.07;3.20;;;;;;;-143.84;64.68;45102.38;5070635;28;20838;-75
2022/10/19 06:26:33;;;;;;;5.30;3.17;;;;;;;-143.84;62.97;45121.44;5070404;28;20444;-75
2022/10/19 06:29:01;;;;;;;4.90;3.27;;;;;;;-143.84;62.05;45113.81;5070559;28;20437;-75
2022/10/19 06:31:29;;;;;;;5.33;4.10;;;;;;;-143.84;60.28;45113.81;5069992;28;20865;-75
2022/10/19 06:33:56;;;;;;;8.93;4.07;;;;;;;-143.84;60.17;45098.56;5069682;28;21005;-75
2022/10/19 06:36:27;;;;;;;8.77;4.60;;;;;;;-143.84;59.92;45108.09;5069459;28;20440;-75
2022/10/19 06:38:55;;;;;;;11.43;3.77;;;;;;;-143.84;58.14;45100.47;5069463;28;20433;-75
2022/10/19 06:41:23;;;;;;;14.07;4.00;;;;;;;-143.84;58.35;45104.28;5069729;28;20444;-73
2022/10/19 06:43:50;;;;;;;12.20;4.90;;;;;;;-143.84;58.33;45085.25;5069888;28;20506;-73
2022/10/19 06:46:21;;;;;;;10.87;4.10;;;;;;;-143.84;57.96;45081.44;5069541;28;21021;-73
2022/10/19 06:48:53;;;;;;;11.03;4.30;;;;;;;-143.84;57.63;45098.56;5069347;28;20506;-73
2022/10/19 06:51:21;;;;;;;7.40;3.60;;;;;;;-143.84;55.97;45087.16;5069395;28;20449;-73
2022/10/19 06:53:50;;;;;;;12.50;4.37;;;;;;;-143.84;55.93;45075.72;5069417;28;20487;-73
2022/10/19 06:56:17;;;;;;;3.63;3.00;;;;;;;-143.84;55.69;45073.81;5069316;28;20445;-73
2022/10/19 06:58:44;;;;;;;6.97;3.43;;;;;;;-143.84;54.31;45075.72;5069138;28;20444;-75
2022/10/19 07:01:12;;;;;;;3.97;2.93;;;;;;;-143.84;51.62;45089.06;5069218;28;20472;-75
2022/10/19 07:03:42;;;;;;;6.33;3.53;;;;;;;-143.84;52.16;45054.78;5068998;28;20487;-75
2022/10/19 07:06:11;;;;;;;8.03;2.80;;;;;;;-143.84;51.60;45066.22;5069353;28;20532;-75
2022/10/19 07:08:40;;;;;;;5.97;3.30;;;;;;;-143.84;51.12;45087.16;5069387;28;20502;-76
2022/10/19 07:11:11;;;;;;;5.37;2.73;;;;;;;-143.84;50.36;45089.06;5069317;28;21184;-75
2022/10/19 07:13:39;;;;;;;3.43;2.50;;;;;;;-143.84;49.28;45062.41;5068897;28;21002;-75
2022/10/19 07:16:10;;;;;;;4.40;3.70;;;;;;;-143.84;48.20;45071.91;5069212;28;20441;-75
2022/10/19 07:18:38;;;;;;;9.80;2.40;;;;;;;-143.84;48.24;45073.81;5068941;28;20469;-76
2022/10/19 07:21:08;;;;;;;5.10;2.57;;;;;;;-143.84;46.80;45087.16;5069027;28;20960;-76
2022/10/19 07:23:38;;;;;;;4.40;3.53;;;;;;;-143.84;47.53;45064.31;5068711;28;20444;-75
2022/10/19 07:26:10;;;;;;;4.23;2.50;;;;;;;-143.84;46.89;45066.22;5068977;28;20433;-75
2022/10/19 07:28:39;;;;;;;2.90;2.10;;;;;;;-143.84;47.16;45064.31;5069280;28;20444;-75
2022/10/19 07:31:07;;;;;;;7.00;2.40;;;;;;;-143.84;45.89;45077.63;5069277;28;20798;-75
2022/10/19 07:33:35;;;;;;;3.87;2.50;;;;;;;-143.84;44.63;45066.22;5068813;28;20476;-75
2022/10/19 07:36:05;;;;;;;8.30;2.53;;;;;;;-143.84;43.76;45052.88;5068785;28;20448;-76
2022/10/19 07:38:32;;;;;;;9.20;2.67;;;;;;;-143.84;42.74;45079.53;5068835;28;20449;-76
2022/10/19 07:41:01;;;;;;;4.83;3.17;;;;;;;-143.84;42.66;45085.25;5068726;28;20504;-75
2022/10/19 07:43:30;;;;;;;2.77;2.57;;;;;;;-143.84;41.45;45062.41;5068867;28;20437;-76
2022/10/19 07:46:05;;;;;;;5.10;2.47;;;;;;;-143.84;41.28;45050.97;5068725;28;20459;-76
2022/10/19 07:48:33;;;;;;;3.50;2.13;;;;;;;-143.84;40.58;45054.78;5068672;28;20436;-75
2022/10/19 07:51:01;;;;;;;3.10;2.30;;;;;;;-143.84;40.83;45106.19;5068529;28;20868;-75
2022/10/19 07:53:29;;;;;;;3.30;2.47;;;;;;;-143.84;40.52;45041.44;5068923;28;21084;-75
2022/10/19 07:55:56;;;;;;;15.00;3.83;;;;;;;-143.84;40.25;45037.66;5068786;28;20525;-75
2022/10/19 07:58:23;;;;;;;3.40;2.77;;;;;;;-143.84;39.60;45068.13;5088574;28;21211;-75
2022/10/19 08:00:51;;;;;;;6.47;2.93;;;;;;;-143.84;40.21;45056.69;5088971;28;20497;-76
2022/10/19 08:03:19;;;;;;;5.33;2.80;;;;;;;-143.84;39.65;45066.22;5088698;28;20463;-76
2022/10/19 08:05:46;;;;;;;3.67;3.13;;;;;;;-143.84;38.80;45047.16;5078733;28;20507;-76
2022/10/19 08:08:14;;;;;;;4.30;3.03;;;;;;;-143.84;38.79;45039.53;5068480;28;20491;-75
2022/10/19 08:10:41;;;;;;;7.63;2.53;;;;;;;-143.84;38.17;45041.44;5068400;28;20530;-75
2022/10/19 08:13:08;;;;;;;4.37;3.03;;;;;;;-143.84;37.89;45039.53;5068490;28;20578;-75
2022/10/19 08:15:35;;;;;;;5.33;3.50;;;;;;;-143.84;38.78;45037.66;5068398;28;20445;-75
2022/10/19 08:18:03;;;;;;;14.93;3.60;;;;;;;-143.84;39.95;45043.34;5068215;28;20533;-75
2022/10/19 08:20:30;;;;;;;6.13;2.20;;;;;;;-143.84;37.57;45028.13;5068225;28;20448;-75
2022/10/19 08:22:58;;;;;;;13.67;3.20;;;;;;;-143.84;38.47;45052.88;5068532;28;20448;-75
2022/10/19 08:25:25;;;;;;;6.50;3.10;;;;;;;-143.84;39.00;45050.97;5068354;28;20441;-75
2022/10/19 08:27:52;;;;;;;4.57;3.80;;;;;;;-143.84;39.11;45028.13;5068328;28;20445;-76
2022/10/19 08:30:19;;;;;;;7.73;3.20;;;;;;;-143.84;38.97;45081.44;5070900;28;20433;-75
2022/10/19 08:32:47;;;;;;;9.00;3.77;;;;;;;-143.84;40.00;45030.03;5072047;28;20459;-75
2022/10/19 08:35:15;;;;;;;7.37;4.47;;;;;;;-143.84;39.70;45026.22;5071890;28;20486;-75
2022/10/19 08:37:43;;;;;;;9.43;4.47;;;;;;;-143.84;39.54;45037.66;5071997;28;20779;-75
2022/10/19 08:40:18;;;;;;;5.60;3.20;;;;;;;-143.84;38.12;45026.22;5071718;28;20444;-75
2022/10/19 08:42:53;;;;;;;3.77;3.00;;;;;;;-143.84;38.29;45009.09;5071682;28;20447;-75
2022/10/19 08:45:32;;;;;;;4.43;3.20;;;;;;;-143.84;37.74;45022.41;5071507;28;20452;-75
2022/10/19 08:48:07;;;;;;;4.23;3.53;;;;;;;-143.84;37.73;45016.69;5071380;28;20453;-75
2022/10/19 08:50:39;;;;;;;6.13;2.80;;;;;;;-143.84;37.39;45014.78;5071532;28;20447;-75
2022/10/19 08:53:11;;;;;;;7.00;3.17;;;;;;;-143.84;37.94;45007.19;5071515;28;20439;-75
2022/10/19 08:56:03;;;;;;;8.17;3.90;;;;;;;-143.84;37.69;45022.41;5071414;28;20445;-75
2022/10/19 08:58:46;;;;;;;6.47;2.90;;;;;;;-143.84;38.07;45014.78;5071515;28;20437;-75
2022/10/19 09:01:18;;;;;;;12.90;3.90;;;;;;;-143.84;38.17;45041.44;5071638;28;20428;-75
2022/10/19 09:03:51;;;;;;;7.73;3.93;;;;;;;-143.84;38.58;45037.66;5071575;28;20444;-75
2022/10/19 09:06:26;;;;;;;15.50;5.57;;;;;;;-143.84;38.71;45022.41;5071199;28;20513;-75
2022/10/19 09:08:55;;;;;;;12.10;9.17;;;;;;;-143.84;38.29;45056.69;5071251;28;20463;-75
2022/10/19 09:11:27;;;;;;;21.17;10.43;;;;;;;-143.84;38.43;45045.25;5071099;28;20978;-76
2022/10/19 09:14:02;;;;;;;21.00;10.20;;;;;;;-143.84;38.76;45037.66;5071010;28;20534;-75
2022/10/19 09:16:30;;;;;;;16.00;7.70;;;;;;;-143.84;38.36;45030.03;5071034;28;20433;-75
2022/10/19 09:18:57;;;;;;;23.30;11.30;;;;;;;-143.84;38.34;45031.94;5071288;28;20506;-75
2022/10/19 09:21:32;;;;;;;28.60;16.50;;;;;;;-143.84;39.13;45037.66;5071151;28;20448;-75
2022/10/19 09:24:05;;;;;;;33.60;15.43;;;;;;;-143.84;39.74;45022.41;5071269;28;20455;-75
2022/10/19 09:26:37;;;;;;;22.53;12.50;;;;;;;-143.84;39.55;45010.97;5071015;28;20448;-75
2022/10/19 09:29:13;;;;;;;38.87;15.83;;;;;;;-143.84;39.60;45014.78;5071025;28;20433;-76
2022/10/19 09:31:42;;;;;;;43.67;21.60;;;;;;;-143.84;40.49;45022.41;5070776;28;20441;-75
2022/10/19 09:34:21;;;;;;;41.73;20.40;;;;;;;-143.84;40.19;45026.22;5070682;28;20512;-75
2022/10/19 09:36:54;;;;;;;36.23;21.10;;;;;;;-143.84;40.03;45068.13;5070771;28;20438;-75
2022/10/19 09:39:22;;;;;;;35.57;18.77;;;;;;;-143.84;39.47;45016.69;5070843;28;20444;-75
2022/10/19 09:41:52;;;;;;;33.10;17.37;;;;;;;-143.84;39.40;45050.97;5070614;28;20448;-75
2022/10/19 09:44:20;;;;;;;30.47;18.13;;;;;;;-143.84;40.20;45039.53;5070751;28;20503;-75
2022/10/19 09:46:51;;;;;;;24.87;15.10;;;;;;;-143.84;40.41;45052.88;5070513;28;20466;-75
2022/10/19 09:49:19;;;;;;;40.07;19.13;;;;;;;-143.84;40.76;45022.41;5071178;28;20504;-75
2022/10/19 09:51:51;;;;;;;46.70;18.67;;;;;;;-143.84;40.59;45073.81;5070759;28;20441;-75
2022/10/19 09:54:33;;;;;;;24.90;14.37;;;;;;;-143.84;40.79;45037.66;5070432;28;20476;-75
2022/10/19 09:57:00;;;;;;;22.47;13.30;;;;;;;-143.84;40.58;45033.84;5070822;28;20433;-75
2022/10/19 09:59:31;;;;;;;18.50;12.47;;;;;;;-143.84;40.14;45052.88;5070539;28;20433;-75
2022/10/19 10:02:14;;;;;;;18.97;12.30;;;;;;;-143.84;40.36;45039.53;5070304;28;20435;-75
2022/10/19 10:04:45;;;;;;;20.33;12.47;;;;;;;-143.84;40.73;45041.44;5070397;28;20449;-75
2022/10/19 10:07:17;;;;;;;22.27;11.10;;;;;;;-143.84;40.37;45054.78;5069784;28;20866;-75
2022/10/19 10:09:45;;;;;;;23.53;10.13;;;;;;;-143.84;40.41;45016.69;5070320;28;20445;-75
2022/10/19 10:12:15;;;;;;;10.83;8.00;;;;;;;-143.84;39.87;45035.75;5050480;28;20486;-75
2022/10/19 10:14:44;;;;;;;69.87;12.37;;;;;;;-143.84;39.63;45037.66;5049661;28;20477;-75
2022/10/19 10:17:16;;;;;;;9.80;6.70;;;;;;;-143.84;38.10;45045.25;5050236;28;20488;-75
2022/10/19 10:19:52;;;;;;;16.57;7.37;;;;;;;-143.84;38.49;45037.66;5050027;28;20448;-76
2022/10/19 10:22:27;;;;;;;21.37;7.07;;;;;;;-143.84;38.96;45049.06;5049889;28;20442;-75
2022/10/19 10:24:56;;;;;;;11.40;6.40;;;;;;;-143.84;39.06;45028.13;5049574;28;20453;-75
2022/10/19 10:27:31;;;;;;;14.80;6.40;;;;;;;-143.84;38.45;45041.44;5049032;28;20448;-75
2022/10/19 10:29:58;;;;;;;9.57;6.00;;;;;;;-143.84;38.21;45016.69;5049404;28;20507;-75
2022/10/19 10:32:27;;;;;;;14.37;7.33;;;;;;;-143.84;38.67;45045.25;5065038;28;20452;-75
2022/10/19 10:35:01;;;;;;;7.93;5.67;;;;;;;-143.84;38.61;45054.78;5070939;28;20916;-75
2022/10/19 10:37:37;;;;;;;17.53;5.50;;;;;;;-143.84;38.38;45073.81;5069177;28;20498;-75
2022/10/19 10:40:14;;;;;;;8.37;4.90;;;;;;;-143.84;39.09;45028.13;5052258;28;20529;-75
2022/10/19 10:42:45;;;;;;;6.10;5.30;;;;;;;-143.84;38.77;45026.22;5069715;28;20437;-75
2022/10/19 10:45:19;;;;;;;11.93;6.13;;;;;;;-143.84;39.35;45071.91;5069494;28;20448;-75
2022/10/19 10:47:48;;;;;;;8.33;4.57;;;;;;;-143.84;37.92;45041.44;5069783;28;20444;-75
2022/10/19 10:50:23;;;;;;;10.40;4.63;;;;;;;-143.84;38.33;45037.66;5069511;28;20831;-75
2022/10/19 10:53:01;;;;;;;7.77;5.50;;;;;;;-143.84;37.98;45050.97;5068729;28;20452;-75
2022/10/19 10:55:29;;;;;;;7.33;5.20;;;;;;;-143.84;39.15;45037.66;5069806;28;20483;-75
2022/10/19 10:58:09;;;;;;;8.77;5.70;;;;;;;-143.84;37.95;45028.13;5069593;28;20444;-75
2022/10/19 11:00:39;;;;;;;15.90;3.20;;;;;;;-143.84;34.26;45037.66;5069382;28;20441;-75
2022/10/19 11:03:14;;;;;;;3.73;3.30;;;;;;;-143.84;33.66;45022.41;5069656;28;20484;-75
2022/10/19 11:05:45;;;;;;;7.73;3.10;;;;;;;-143.84;33.73;45047.16;5069376;28;20945;-75
2022/10/19 11:08:22;;;;;;;2.87;2.67;;;;;;;-143.84;32.78;45030.03;5069967;28;20461;-75
2022/10/19 11:10:55;;;;;;;6.60;2.80;;;;;;;-143.84;31.58;45033.84;5077391;28;21005;-75
2022/10/19 11:13:29;;;;;;;3.30;3.00;;;;;;;-143.84;29.83;45031.94;5078611;28;20445;-75
2022/10/19 11:16:00;;;;;;;11.63;3.07;;;;;;;-143.84;30.70;45022.41;5070173;28;20545;-75
2022/10/19 11:18:32;;;;;;;6.30;2.90;;;;;;;-143.84;29.63;45007.19;5069432;28;20437;-75
2022/10/19 11:21:06;;;;;;;8.63;3.10;;;;;;;-143.84;29.35;45030.03;5069150;28;20449;-75
2022/10/19 11:23:51;;;;;;;4.37;2.80;;;;;;;-143.84;29.08;45016.69;5069998;28;20445;-75
2022/10/19 11:26:34;;;;;;;3.23;2.33;;;;;;;-143.84;30.35;45014.78;5069516;28;20437;-75
2022/10/19 11:29:21;;;;;;;6.80;2.83;;;;;;;-143.84;28.99;45028.13;5069360;28;20441;-75
2022/10/19 11:31:53;;;;;;;13.63;2.97;;;;;;;-143.84;29.70;45014.78;5068896;28;20498;-75
2022/10/19 11:34:47;;;;;;;5.20;3.33;;;;;;;-143.84;29.11;45012.88;5067470;28;20494;-75
2022/10/19 11:37:25;;;;;;;8.40;2.33;;;;;;;-143.84;28.97;45014.78;5069120;28;20437;-75